Time;durP1;ratioP1;P1;durP2;ratioP2;P2;SDS_P1;SDS_P2;PMS_P1;PMS_P2;Temp;Humidity;BMP_temperature;BMP_pressure;BME280_temperature;BME280_humidity;BME280_pressure;Samples;Min_cycle;Max_cycle;Signal;HPM_P1;HPM_P2
2021/11/18 00:11:38;;;;;;;0.30;0.30;;;6.00;95.00;4.70;102514.00;;;;30876448;28;20058;-73
2021/11/18 00:26:44;;;;;;;0.30;0.30;;;5.90;95.20;4.60;102527.00;;;;30908686;28;20046;-74
2021/11/18 00:41:48;;;;;;;0.30;0.30;;;5.90;95.00;4.60;102551.00;;;;30911713;28;20497;-74
2021/11/18 00:56:50;;;;;;;0.20;0.20;;;5.80;95.10;4.50;102566.00;;;;30909849;28;20043;-74
2021/11/18 01:11:55;;;;;;;0.30;0.30;;;5.70;95.00;4.40;102530.00;;;;30900353;28;20050;-74
2021/11/18 01:26:59;;;;;;;0.30;0.30;;;5.70;95.20;4.40;102540.00;;;;30880421;28;20043;-73
2021/11/18 01:42:09;;;;;;;0.20;0.20;;;5.80;95.50;4.60;102550.00;;;;30902477;28;20042;-73
2021/11/18 01:57:19;;;;;;;0.30;0.30;;;6.00;95.80;4.90;102580.00;;;;30901968;28;20057;-73
2021/11/18 02:12:32;;;;;;;0.20;0.20;;;6.10;95.40;4.90;102590.00;;;;30900724;28;20050;-73
2021/11/18 02:27:34;;;;;;;0.20;0.20;;;6.00;95.60;4.70;102578.00;;;;30881856;28;20552;-73
2021/11/18 02:42:40;;;;;;;0.30;0.30;;;6.00;95.30;4.70;102578.00;;;;30882029;28;20759;-73
2021/11/18 02:57:44;;;;;;;0.20;0.20;;;5.90;95.30;4.60;102588.00;;;;30880903;28;20212;-73
2021/11/18 03:12:45;;;;;;;0.20;0.20;;;7.80;96.70;4.70;102578.00;;;;30868676;28;20065;-73
2021/11/18 03:27:47;;;;;;;0.20;0.20;;;6.00;95.60;4.80;102573.00;;;;30853984;28;20046;-74
2021/11/18 03:42:49;;;;;;;0.40;0.40;;;6.20;95.70;5.10;102606.00;;;;30873940;28;20059;-74
2021/11/18 03:58:06;;;;;;;0.30;0.30;;;6.30;95.70;5.30;102610.00;;;;30908511;28;20043;-74
2021/11/18 04:13:33;;;;;;;0.28;0.28;;;6.70;96.20;5.60;102609.00;;;;30811544;28;20051;-74
2021/11/18 04:28:41;;;;;;;0.30;0.30;;;6.80;96.00;5.70;102618.00;;;;30796785;28;20051;-75
2021/11/18 04:43:43;;;;;;;0.20;0.20;;;6.90;95.70;5.80;102610.00;;;;30780156;28;20130;-75
2021/11/18 04:58:53;;;;;;;0.10;0.10;;;6.20;96.00;5.90;102594.00;;;;30782578;28;20102;-75
2021/11/18 05:14:02;;;;;;;0.20;0.20;;;7.10;95.40;5.90;102601.00;;;;30778758;28;20417;-75
2021/11/18 05:29:05;;;;;;;0.22;0.22;;;7.10;95.40;6.00;102587.00;;;;30796910;28;20514;-75
2021/11/18 05:44:07;;;;;;;0.22;0.22;;;7.20;95.50;6.00;102599.00;;;;30794048;28;20051;-75
2021/11/18 05:59:11;;;;;;;0.30;0.30;;;7.20;95.70;6.10;102605.00;;;;30783760;28;20055;-75
2021/11/18 06:14:13;;;;;;;0.22;0.22;;;7.30;95.40;6.10;102610.00;;;;30769707;28;20096;-75
2021/11/18 06:29:19;;;;;;;0.20;0.20;;;7.30;95.20;6.20;102611.00;;;;30794378;28;20090;-76
2021/11/18 06:44:22;;;;;;;0.20;0.20;;;7.90;95.30;6.30;102641.00;;;;30792586;28;20054;-74
2021/11/18 06:59:31;;;;;;;0.20;0.20;;;7.50;95.30;6.30;102654.00;;;;30777083;28;20462;-76
2021/11/18 07:14:35;;;;;;;0.20;0.20;;;7.50;95.10;6.30;102650.00;;;;30785197;28;20058;-76
2021/11/18 07:29:37;;;;;;;0.30;0.30;;;7.10;96.00;6.40;102670.00;;;;30786792;28;20058;-76
2021/11/18 07:44:39;;;;;;;1.50;0.68;;;7.80;95.30;6.40;102692.00;;;;30761743;28;20061;-75
2021/11/18 08:00:50;;;;;;;0.22;0.22;;;7.60;94.90;6.50;102701.00;;;;30762900;28;21231;-75
2021/11/18 08:16:04;;;;;;;0.40;0.40;;;7.60;95.30;6.50;102693.00;;;;30725013;28;20069;-74
2021/11/18 08:31:08;;;;;;;0.77;0.77;;;7.70;94.90;6.60;102705.00;;;;30760980;28;20061;-74
2021/11/18 08:46:23;;;;;;;0.20;0.20;;;7.80;94.80;6.80;102668.00;;;;30778465;28;20074;-74
2021/11/18 09:01:43;;;;;;;0.20;0.20;;;8.00;94.70;7.10;102680.00;;;;30809579;28;20117;-75
2021/11/18 09:16:46;;;;;;;0.10;0.10;;;8.20;94.40;7.40;102706.00;;;;30837939;28;20053;-74
2021/11/18 09:31:58;;;;;;;0.20;0.20;;;8.20;94.50;7.60;102725.00;;;;30821993;28;20081;-74
2021/11/18 09:47:39;;;;;;;0.60;0.60;;;8.70;93.90;8.00;102749.00;;;;30805496;28;20047;-74
2021/11/18 10:03:02;;;;;;;0.45;0.45;;;9.20;93.50;8.40;102772.00;;;;30801181;28;20090;-74
2021/11/18 10:18:36;;;;;;;0.20;0.20;;;9.70;92.70;8.80;102750.00;;;;30818543;28;20047;-73
2021/11/18 10:33:58;;;;;;;0.20;0.20;;;10.00;92.20;9.30;102730.00;;;;30819161;28;20513;-74
2021/11/18 10:49:11;;;;;;;0.10;0.10;;;10.60;91.20;9.90;102730.00;;;;30845488;28;20469;-75
2021/11/18 11:04:41;;;;;;;0.10;0.10;;;11.00;90.50;10.10;102731.00;;;;30801607;28;20074;-75
2021/11/18 11:20:09;;;;;;;1.75;0.98;;;11.00;90.70;10.10;102713.00;;;;30788526;28;20266;-75
2021/11/18 11:36:10;;;;;;;0.20;0.20;;;11.40;88.30;10.60;102709.00;;;;30787759;28;20062;-76
2021/11/18 11:51:49;;;;;;;0.20;0.20;;;11.70;86.30;10.90;102701.00;;;;30775509;28;20039;-77
2021/11/18 12:07:02;;;;;;;0.32;0.32;;;11.70;87.50;10.80;102684.00;;;;30803264;28;20074;-75
2021/11/18 12:22:39;;;;;;;0.17;0.17;;;11.80;83.60;11.10;102662.00;;;;30785510;28;20821;-76
2021/11/18 12:37:59;;;;;;;10.95;1.42;;;11.90;84.30;11.20;102656.00;;;;30769109;28;20051;-75
2021/11/18 12:53:12;;;;;;;0.75;0.43;;;12.00;83.30;11.30;102659.00;;;;30766609;28;20666;-76
2021/11/18 13:08:38;;;;;;;1.20;1.20;;;12.10;82.30;11.30;102633.00;;;;30773575;28;20062;-76
2021/11/18 13:24:05;;;;;;;0.40;0.40;;;12.30;82.10;11.40;102643.00;;;;30783294;28;20061;-76
2021/11/18 13:39:25;;;;;;;0.30;0.30;;;12.40;81.60;11.60;102631.00;;;;30785579;28;20446;-76
2021/11/18 13:55:18;;;;;;;0.20;0.20;;;12.50;83.10;11.70;102641.00;;;;30802571;28;20142;-78
2021/11/18 14:10:34;;;;;;;0.10;0.10;;;12.30;81.40;11.50;102649.00;;;;30782763;28;20051;-77
2021/11/18 14:25:44;;;;;;;0.20;0.20;;;12.40;80.10;11.50;102627.00;;;;30805265;28;20217;-77
2021/11/18 14:41:26;;;;;;;0.10;0.10;;;12.20;83.20;11.30;102634.00;;;;30789621;28;20051;-77
2021/11/18 14:56:38;;;;;;;0.15;0.15;;;12.10;82.60;11.20;102663.00;;;;30807011;28;20197;-76
2021/11/18 15:11:47;;;;;;;0.93;0.88;;;12.00;82.60;11.10;102668.00;;;;30784076;28;20057;-76
2021/11/18 15:26:51;;;;;;;2.72;0.90;;;12.00;83.40;11.00;102672.00;;;;30777871;28;20583;-76
2021/11/18 15:41:58;;;;;;;1.63;1.52;;;11.80;83.20;10.90;102666.00;;;;30756914;28;20490;-76
2021/11/18 15:57:00;;;;;;;0.20;0.20;;;11.80;83.80;10.80;102655.00;;;;30804189;28;20081;-76
2021/11/18 16:12:11;;;;;;;0.25;0.25;;;11.60;84.20;10.60;102653.00;;;;30774197;28;20489;-76
2021/11/18 16:27:12;;;;;;;2.00;2.00;;;11.60;84.20;10.60;102664.00;;;;30800961;28;20137;-77
2021/11/18 16:42:20;;;;;;;0.13;0.13;;;11.50;84.50;10.50;102678.00;;;;30884709;28;20663;-76
2021/11/18 16:57:25;;;;;;;0.50;0.50;;;11.40;84.90;10.40;102664.00;;;;30874743;28;20355;-77
2021/11/18 17:12:29;;;;;;;0.10;0.10;;;11.40;85.30;10.40;102660.00;;;;30875822;28;20049;-77
2021/11/18 17:27:34;;;;;;;0.13;0.13;;;11.40;85.30;10.40;102678.00;;;;30897245;28;20058;-77
2021/11/18 17:42:47;;;;;;;3.07;1.40;;;11.40;86.00;10.40;102694.00;;;;30898222;28;20050;-76
2021/11/18 17:57:50;;;;;;;0.10;0.10;;;11.40;85.70;10.40;102717.00;;;;30877665;28;20061;-76
2021/11/18 18:12:54;;;;;;;0.20;0.20;;;11.30;86.80;10.40;102725.00;;;;30899865;28;20389;-76
2021/11/18 18:28:00;;;;;;;0.20;0.20;;;11.40;86.90;10.50;102730.00;;;;30876851;28;20050;-76
2021/11/18 18:43:04;;;;;;;0.15;0.15;;;11.40;88.30;10.50;102742.00;;;;30772909;28;20125;-76
2021/11/18 18:58:07;;;;;;;1.07;1.07;;;11.40;88.30;10.50;102742.00;;;;30798269;28;20677;-76
2021/11/18 19:13:08;;;;;;;0.43;0.43;;;11.40;87.70;10.40;102754.00;;;;30893022;28;20046;-77
2021/11/18 19:43:28;;;;;;;0.47;0.47;;;11.30;88.10;10.40;102758.00;;;;30803889;28;20706;-76
2021/11/18 19:58:29;;;;;;;0.10;0.10;;;11.30;88.80;10.40;102753.00;;;;30782404;28;20134;-76
2021/11/18 20:13:30;;;;;;;0.20;0.20;;;11.30;88.40;10.40;102752.00;;;;30767750;28;20047;-76
2021/11/18 20:28:36;;;;;;;0.55;0.55;;;11.30;88.90;10.40;102770.00;;;;30771522;28;20841;-76
2021/11/18 20:43:37;;;;;;;0.10;0.10;;;11.30;89.10;10.30;102793.00;;;;30803912;28;20053;-76
2021/11/18 20:58:38;;;;;;;0.10;0.10;;;11.10;90.00;10.40;102810.00;;;;30783373;28;20066;-76
2021/11/18 21:13:40;;;;;;;0.17;0.17;;;11.30;89.50;10.30;102809.00;;;;30753777;28;20314;-77
2021/11/18 21:28:48;;;;;;;0.30;0.30;;;11.30;90.10;10.40;102801.00;;;;30780334;28;20530;-76
2021/11/18 21:43:49;;;;;;;0.45;0.45;;;11.30;90.20;10.40;102814.00;;;;30804473;28;20053;-76
2021/11/18 21:58:58;;;;;;;0.10;0.10;;;11.30;90.30;10.40;102810.00;;;;30779783;28;20047;-76
2021/11/18 22:14:26;;;;;;;0.20;0.20;;;11.30;90.30;10.40;102817.00;;;;30796808;28;20410;-77
2021/11/18 22:29:35;;;;;;;0.20;0.20;;;11.30;90.40;10.30;102801.00;;;;30773819;28;20070;-76
2021/11/18 22:44:38;;;;;;;0.15;0.15;;;11.30;90.60;10.40;102797.00;;;;30784182;28;20046;-76
2021/11/18 22:59:39;;;;;;;0.20;0.20;;;11.30;90.90;10.40;102784.00;;;;30777061;28;20125;-76
2021/11/18 23:14:41;;;;;;;0.57;0.57;;;11.30;91.10;10.40;102792.00;;;;30796525;28;20514;-76
2021/11/18 23:29:45;;;;;;;0.40;0.40;;;11.30;91.60;10.50;102773.00;;;;30770783;28;20055;-76
2021/11/18 23:44:48;;;;;;;1.03;1.00;;;12.00;91.90;10.50;102768.00;;;;30788555;28;20054;-76
2021/11/18 23:59:51;;;;;;;1.88;0.55;;;11.50;92.30;10.60;102765.00;;;;30770572;28;20093;-76
